Time;durP1;ratioP1;P1;durP2;ratioP2;P2;SDS_P1;SDS_P2;PMS_P1;PMS_P2;Temp;Humidity;BMP_temperature;BMP_pressure;BME280_temperature;BME280_humidity;BME280_pressure;Samples;Min_cycle;Max_cycle;Signal;HPM_P1;HPM_P2
2021/10/21 00:00:26;;;;;;;11.10;4.63;;;16.20;99.90;;;;;;4880865;29;20109;-72
2021/10/21 00:02:52;;;;;;;8.98;4.20;;;16.20;99.90;;;;;;4880409;29;20072;-72
2021/10/21 00:05:18;;;;;;;9.00;3.80;;;16.30;99.90;;;;;;4881091;29;20029;-72
2021/10/21 00:07:44;;;;;;;11.50;4.45;;;16.30;99.90;;;;;;4880605;29;20052;-72
2021/10/21 00:10:11;;;;;;;7.72;3.78;;;16.30;99.90;;;;;;4880715;29;20388;-72
2021/10/21 00:12:36;;;;;;;6.95;4.78;;;16.30;99.90;;;;;;4880466;29;20079;-72
2021/10/21 00:15:03;;;;;;;11.50;4.80;;;16.20;99.90;;;;;;4880728;29;20045;-72
2021/10/21 00:17:29;;;;;;;10.05;4.40;;;16.20;99.90;;;;;;4880583;29;20041;-72
2021/10/21 00:19:57;;;;;;;9.73;4.22;;;16.20;99.90;;;;;;4880669;29;20076;-72
2021/10/21 00:22:23;;;;;;;8.80;4.53;;;16.20;99.90;;;;;;4880665;29;20072;-72
2021/10/21 00:24:48;;;;;;;8.35;4.38;;;16.20;99.90;;;;;;4880538;29;20076;-72
2021/10/21 00:27:14;;;;;;;8.93;4.97;;;16.20;99.90;;;;;;4880625;29;20529;-72
2021/10/21 00:29:40;;;;;;;9.30;4.80;;;16.20;99.90;;;;;;4880753;29;20045;-73
2021/10/21 00:32:06;;;;;;;6.22;4.20;;;16.20;99.90;;;;;;4880224;29;20190;-72
2021/10/21 00:34:32;;;;;;;7.65;4.82;;;16.10;99.90;;;;;;4880310;29;20499;-72
2021/10/21 00:36:58;;;;;;;6.10;4.20;;;16.10;99.90;;;;;;4880552;29;20037;-72
2021/10/21 00:39:23;;;;;;;6.60;3.97;;;16.10;99.90;;;;;;4880837;29;20051;-72
2021/10/21 00:41:49;;;;;;;9.18;4.78;;;16.10;99.90;;;;;;4880210;29;20048;-72
2021/10/21 00:44:19;;;;;;;12.48;5.00;;;16.10;99.90;;;;;;4880491;29;20068;-72
2021/10/21 00:46:45;;;;;;;7.75;4.97;;;16.10;99.90;;;;;;4880388;29;20053;-72
2021/10/21 00:49:11;;;;;;;13.55;6.00;;;16.10;99.90;;;;;;4880958;29;20075;-73
2021/10/21 00:51:38;;;;;;;8.77;4.88;;;16.10;99.90;;;;;;4882189;29;20036;-72
2021/10/21 00:54:05;;;;;;;13.60;5.40;;;16.00;99.90;;;;;;4884085;29;20041;-72
2021/10/21 00:56:32;;;;;;;14.13;5.07;;;16.00;99.90;;;;;;4883255;29;20065;-72
2021/10/21 00:58:58;;;;;;;7.40;4.60;;;16.00;99.90;;;;;;4883612;29;20045;-72
2021/10/21 01:01:28;;;;;;;6.88;4.65;;;15.90;99.90;;;;;;4883228;29;20150;-73
2021/10/21 01:03:53;;;;;;;6.10;4.20;;;16.00;99.90;;;;;;4883043;29;20035;-73
2021/10/21 01:06:19;;;;;;;4.20;3.70;;;15.90;99.90;;;;;;4883063;29;20049;-73
2021/10/21 01:08:46;;;;;;;6.03;4.15;;;15.90;99.90;;;;;;4883506;29;20049;-72
2021/10/21 01:11:15;;;;;;;5.18;4.10;;;16.00;99.90;;;;;;4883229;29;20073;-73
2021/10/21 01:13:41;;;;;;;5.63;4.30;;;16.00;99.90;;;;;;4883189;29;20075;-72
2021/10/21 01:16:14;;;;;;;5.10;3.90;;;16.00;99.90;;;;;;4882657;29;20049;-72
2021/10/21 01:18:41;;;;;;;4.22;3.70;;;16.00;99.90;;;;;;4883227;29;20044;-72
2021/10/21 01:21:08;;;;;;;6.32;4.07;;;16.00;99.90;;;;;;4882927;29;20600;-72
2021/10/21 01:23:35;;;;;;;6.13;3.72;;;16.00;99.90;;;;;;4882986;29;20116;-72
2021/10/21 01:26:01;;;;;;;5.15;3.88;;;16.00;99.90;;;;;;4883148;29;20493;-72
2021/10/21 01:28:27;;;;;;;5.55;4.07;;;16.00;99.90;;;;;;4882989;29;20100;-73
2021/10/21 01:30:54;;;;;;;4.50;3.70;;;15.90;99.90;;;;;;4882398;29;20055;-73
2021/10/21 01:33:20;;;;;;;6.63;4.13;;;16.00;99.90;;;;;;4882528;29;20449;-73
2021/10/21 01:35:46;;;;;;;7.78;3.70;;;16.00;99.90;;;;;;4882676;29;20501;-72
2021/10/21 01:38:12;;;;;;;9.25;3.90;;;16.00;99.90;;;;;;4882461;29;20033;-73
2021/10/21 01:40:38;;;;;;;7.68;3.55;;;16.00;99.90;;;;;;4882674;29;20112;-72
2021/10/21 01:43:04;;;;;;;9.07;4.22;;;16.00;99.90;;;;;;4882920;29;20052;-73
2021/10/21 01:45:32;;;;;;;9.02;4.28;;;16.00;99.90;;;;;;4882349;29;20041;-73
2021/10/21 01:48:00;;;;;;;7.65;4.07;;;16.00;99.90;;;;;;4882673;29;20029;-72
2021/10/21 01:50:28;;;;;;;7.75;3.85;;;16.00;99.90;;;;;;4882695;29;20052;-72
2021/10/21 01:52:55;;;;;;;10.27;4.57;;;15.90;99.90;;;;;;4882475;29;20052;-72
2021/10/21 01:55:21;;;;;;;10.40;5.20;;;16.00;99.90;;;;;;4882412;29;20055;-72
2021/10/21 01:57:47;;;;;;;14.88;5.22;;;15.90;99.90;;;;;;4882599;29;20060;-72
2021/10/21 02:00:15;;;;;;;8.90;4.43;;;15.80;99.90;;;;;;4882894;29;20051;-72
2021/10/21 02:02:44;;;;;;;14.00;4.70;;;15.70;99.90;;;;;;4882194;29;20044;-72
2021/10/21 02:05:12;;;;;;;12.30;4.88;;;15.70;99.90;;;;;;4882512;29;20136;-72
2021/10/21 02:07:38;;;;;;;7.18;4.65;;;15.70;99.90;;;;;;4882573;29;20073;-72
2021/10/21 02:10:06;;;;;;;8.80;4.70;;;15.60;99.90;;;;;;4882041;29;20052;-72
2021/10/21 02:12:33;;;;;;;8.93;4.65;;;15.70;99.90;;;;;;4882408;29;20123;-72
2021/10/21 02:14:59;;;;;;;11.32;5.55;;;15.60;99.90;;;;;;4882368;29;20037;-72
2021/10/21 02:17:25;;;;;;;8.60;4.88;;;15.70;99.90;;;;;;4882291;29;20037;-72
2021/10/21 02:19:52;;;;;;;6.35;3.13;;;15.60;99.90;;;;;;4882635;29;20037;-72
2021/10/21 02:22:18;;;;;;;6.88;2.70;;;15.70;99.90;;;;;;4882197;29;20051;-72
2021/10/21 02:24:44;;;;;;;9.07;2.50;;;15.80;53.70;;;;;;4882220;29;20101;-72
2021/10/21 02:27:10;;;;;;;6.35;2.17;;;15.90;99.90;;;;;;4882300;29;20045;-72
2021/10/21 02:29:36;;;;;;;8.02;2.60;;;15.80;65.90;;;;;;4882597;29;20052;-73
2021/10/21 02:32:02;;;;;;;4.97;1.98;;;15.70;43.50;;;;;;4881815;29;20136;-72
2021/10/21 02:34:28;;;;;;;7.60;2.28;;;15.70;72.80;;;;;;4881723;29;20438;-72
2021/10/21 02:36:54;;;;;;;9.77;2.40;;;15.80;27.40;;;;;;4881681;29;20045;-72
2021/10/21 02:39:20;;;;;;;4.75;2.00;;;15.80;35.10;;;;;;4882245;29;20109;-73
2021/10/21 02:41:46;;;;;;;9.25;2.65;;;15.80;27.10;;;;;;4881602;29;20040;-72
2021/10/21 02:44:11;;;;;;;11.75;2.38;;;15.80;15.60;;;;;;4881824;29;20075;-73
2021/10/21 02:46:38;;;;;;;10.07;2.78;;;15.80;17.50;;;;;;4881663;29;20037;-72
2021/10/21 02:49:04;;;;;;;10.85;2.70;;;15.80;9.00;;;;;;4881959;29;20053;-73
2021/10/21 02:51:30;;;;;;;6.10;2.00;;;15.80;10.10;;;;;;4881736;29;20048;-72
2021/10/21 02:53:56;;;;;;;10.70;2.50;;;15.70;9.90;;;;;;4881850;29;20045;-73
2021/10/21 02:56:21;;;;;;;9.90;2.47;;;15.70;14.40;;;;;;4881528;29;20065;-73
2021/10/21 02:58:47;;;;;;;10.70;2.53;;;15.70;8.60;;;;;;4881046;29;20185;-72
2021/10/21 03:01:13;;;;;;;7.47;2.20;;;15.60;11.60;;;;;;4881056;29;20037;-73
2021/10/21 03:03:40;;;;;;;9.20;2.15;;;15.70;9.90;;;;;;4880980;29;20124;-72
2021/10/21 03:06:05;;;;;;;7.93;1.73;;;15.70;2.00;;;;;;4881155;29;20045;-73
2021/10/21 03:08:31;;;;;;;9.73;2.65;;;15.70;1.00;;;;;;4881625;29;20128;-72
2021/10/21 03:10:57;;;;;;;14.55;2.22;;;15.80;1.00;;;;;;4881307;29;20049;-73
2021/10/21 03:13:23;;;;;;;8.63;2.95;;;15.80;1.00;;;;;;4880811;29;20069;-72
2021/10/21 03:15:49;;;;;;;11.57;2.30;;;15.80;1.00;;;;;;4880878;29;20116;-73
2021/10/21 03:18:15;;;;;;;13.13;2.80;;;15.80;1.00;;;;;;4881382;29;20043;-72
2021/10/21 03:20:41;;;;;;;9.32;2.28;;;15.70;1.00;;;;;;4880963;29;20135;-72
2021/10/21 03:23:07;;;;;;;14.13;2.78;;;15.70;1.00;;;;;;4880704;29;20045;-73
2021/10/21 03:25:33;;;;;;;11.35;2.38;;;15.60;1.00;;;;;;4880935;29;20533;-72
2021/10/21 03:27:58;;;;;;;17.27;2.70;;;15.50;1.00;;;;;;4881231;29;20382;-72
2021/10/21 03:30:24;;;;;;;17.90;2.85;;;15.50;1.00;;;;;;4880775;29;20053;-72
2021/10/21 03:32:50;;;;;;;17.15;3.65;;;15.50;1.00;;;;;;4880640;29;20033;-72
2021/10/21 03:35:16;;;;;;;12.85;3.00;;;15.40;1.00;;;;;;4881356;29;20540;-72
2021/10/21 03:37:42;;;;;;;16.40;3.03;;;15.50;1.00;;;;;;4880877;29;20071;-73
2021/10/21 03:40:09;;;;;;;12.98;2.83;;;15.40;1.00;;;;;;4880439;29;20562;-73
2021/10/21 03:42:35;;;;;;;22.83;4.15;;;15.40;1.00;;;;;;4880468;29;20089;-72
2021/10/21 03:45:02;;;;;;;12.13;2.20;;;15.40;1.00;;;;;;4880728;29;20044;-72
2021/10/21 03:47:28;;;;;;;13.05;2.80;;;15.50;1.00;;;;;;4880689;29;20045;-73
2021/10/21 03:49:53;;;;;;;14.88;3.13;;;15.50;1.00;;;;;;4880735;29;20409;-72
2021/10/21 03:52:20;;;;;;;11.27;2.78;;;15.40;1.00;;;;;;4880729;29;20044;-72
2021/10/21 03:54:47;;;;;;;15.68;2.80;;;15.40;1.00;;;;;;4880618;29;20552;-73
2021/10/21 03:57:13;;;;;;;16.65;2.65;;;15.40;1.00;;;;;;4880696;29;20057;-73
2021/10/21 03:59:38;;;;;;;17.77;3.20;;;15.40;1.00;;;;;;4880867;29;20041;-73
2021/10/21 04:02:04;;;;;;;14.23;3.20;;;15.30;1.00;;;;;;4878476;29;20041;-73
2021/10/21 04:04:30;;;;;;;23.23;3.47;;;15.30;1.00;;;;;;4869290;29;20033;-72
2021/10/21 04:06:56;;;;;;;23.02;4.10;;;15.30;1.00;;;;;;4865759;29;20049;-73
2021/10/21 04:09:22;;;;;;;15.52;2.70;;;15.30;1.00;;;;;;4870229;29;20106;-72
2021/10/21 04:11:48;;;;;;;19.45;3.28;;;15.30;1.00;;;;;;4861930;29;20049;-73
2021/10/21 04:14:14;;;;;;;17.65;3.20;;;15.20;1.00;;;;;;4861912;29;20386;-73
2021/10/21 04:16:40;;;;;;;23.67;3.70;;;15.20;1.00;;;;;;4864259;29;20052;-73
2021/10/21 04:19:06;;;;;;;18.40;3.25;;;15.20;1.00;;;;;;4872318;29;20055;-73
2021/10/21 04:21:32;;;;;;;16.10;3.38;;;15.20;1.00;;;;;;4863241;29;20057;-73
2021/10/21 04:23:57;;;;;;;19.08;3.22;;;15.20;1.00;;;;;;4861812;29;20509;-73
2021/10/21 04:26:24;;;;;;;21.23;3.67;;;15.10;1.00;;;;;;4865446;29;20482;-72
2021/10/21 04:28:50;;;;;;;17.85;3.40;;;15.10;1.00;;;;;;4865630;29;20065;-73
2021/10/21 04:31:16;;;;;;;16.33;3.55;;;15.10;1.00;;;;;;4865628;29;20490;-73
2021/10/21 04:33:42;;;;;;;16.30;3.30;;;15.00;1.00;;;;;;4867180;29;20053;-75
2021/10/21 04:36:08;;;;;;;24.65;4.03;;;15.10;1.00;;;;;;4873209;29;20041;-72
2021/10/21 04:38:34;;;;;;;18.15;3.40;;;15.10;1.00;;;;;;4881894;29;20038;-73
2021/10/21 04:41:00;;;;;;;16.23;2.97;;;15.10;1.00;;;;;;4883713;29;20045;-72
2021/10/21 04:43:25;;;;;;;18.02;3.75;;;15.10;1.00;;;;;;4884277;29;20080;-73
2021/10/21 04:45:51;;;;;;;19.60;3.97;;;15.10;1.00;;;;;;4883491;29;20393;-73
2021/10/21 04:48:17;;;;;;;21.70;3.80;;;15.10;1.00;;;;;;4883835;29;20493;-72
2021/10/21 04:50:43;;;;;;;19.58;3.47;;;15.10;1.00;;;;;;4883441;29;20049;-72
2021/10/21 04:53:09;;;;;;;16.83;3.63;;;15.00;1.00;;;;;;4883553;29;20037;-73
2021/10/21 04:55:36;;;;;;;24.15;4.00;;;15.00;1.00;;;;;;4882974;29;20104;-73
2021/10/21 04:58:03;;;;;;;17.27;3.67;;;15.00;1.00;;;;;;4883080;29;20523;-73
2021/10/21 05:00:29;;;;;;;16.55;3.55;;;15.00;1.00;;;;;;4883345;29;20045;-73
2021/10/21 05:02:56;;;;;;;21.77;3.53;;;14.90;1.00;;;;;;4883170;29;20074;-73
2021/10/21 05:05:21;;;;;;;20.17;3.60;;;14.80;1.00;;;;;;4883530;29;20044;-73
2021/10/21 05:07:47;;;;;;;18.75;3.85;;;14.80;1.00;;;;;;4883288;29;20049;-73
2021/10/21 05:10:13;;;;;;;23.83;3.75;;;14.80;1.00;;;;;;4883419;29;20561;-72
2021/10/21 05:12:39;;;;;;;21.00;3.85;;;14.80;1.00;;;;;;4883263;29;20147;-72
2021/10/21 05:15:06;;;;;;;18.13;3.58;;;14.80;1.00;;;;;;4883417;29;20536;-73
2021/10/21 05:17:32;;;;;;;13.65;3.17;;;14.80;1.00;;;;;;4883118;29;20041;-73
2021/10/21 05:19:59;;;;;;;26.10;4.05;;;14.70;1.00;;;;;;4883387;29;20096;-72
2021/10/21 05:22:25;;;;;;;21.85;4.43;;;14.70;1.00;;;;;;4883317;29;20068;-72
2021/10/21 05:24:51;;;;;;;19.70;3.95;;;14.80;1.00;;;;;;4883002;29;20068;-72
2021/10/21 05:27:17;;;;;;;20.52;3.80;;;14.80;1.00;;;;;;4883226;29;20060;-71
2021/10/21 05:29:42;;;;;;;16.88;3.25;;;14.80;1.00;;;;;;4880066;29;20049;-73
2021/10/21 05:32:08;;;;;;;22.80;4.45;;;14.80;1.00;;;;;;4881104;29;20048;-73
2021/10/21 05:34:35;;;;;;;26.35;3.83;;;14.80;1.00;;;;;;4881518;29;20512;-71
2021/10/21 05:37:02;;;;;;;20.77;3.40;;;14.70;1.00;;;;;;4881401;29;20497;-73
2021/10/21 05:39:29;;;;;;;18.45;3.90;;;14.80;1.00;;;;;;4882497;29;20041;-73
2021/10/21 05:41:55;;;;;;;23.50;4.57;;;14.80;1.00;;;;;;4882997;29;20532;-73
2021/10/21 05:44:21;;;;;;;20.35;4.03;;;14.70;1.00;;;;;;4882905;29;20061;-73
2021/10/21 05:46:49;;;;;;;25.55;3.70;;;14.70;1.00;;;;;;4882420;29;20076;-72
2021/10/21 05:49:15;;;;;;;22.77;4.25;;;14.70;1.00;;;;;;4881889;29;20447;-73
2021/10/21 05:51:41;;;;;;;14.63;3.50;;;14.70;1.00;;;;;;4881152;29;20049;-76
2021/10/21 05:54:07;;;;;;;19.00;3.22;;;14.80;1.00;;;;;;4882386;29;20507;-73
2021/10/21 05:56:33;;;;;;;20.25;3.95;;;14.70;1.00;;;;;;4881992;29;20474;-73
2021/10/21 05:58:59;;;;;;;20.80;3.60;;;14.70;1.00;;;;;;4882300;29;20409;-73
2021/10/21 06:01:25;;;;;;;19.23;4.38;;;14.70;1.00;;;;;;4875860;29;20073;-73
2021/10/21 06:03:51;;;;;;;20.42;4.18;;;14.70;1.00;;;;;;4856587;29;20045;-73
2021/10/21 06:06:16;;;;;;;21.55;4.13;;;14.70;1.00;;;;;;4863208;29;20056;-73
2021/10/21 06:08:45;;;;;;;21.00;3.95;;;14.70;1.00;;;;;;4863692;29;20041;-73
2021/10/21 06:11:11;;;;;;;27.65;4.10;;;14.70;1.00;;;;;;4863207;29;20045;-73
2021/10/21 06:13:38;;;;;;;26.75;4.32;;;14.70;1.00;;;;;;4861219;29;20509;-74
2021/10/21 06:16:05;;;;;;;17.58;3.67;;;14.70;1.00;;;;;;4859161;29;20049;-75
2021/10/21 06:18:31;;;;;;;21.30;4.03;;;14.70;1.00;;;;;;4860047;29;20427;-75
2021/10/21 06:20:57;;;;;;;24.10;4.35;;;14.60;1.00;;;;;;4869964;29;20152;-75
2021/10/21 06:23:26;;;;;;;20.60;4.25;;;14.60;1.00;;;;;;4879718;29;20045;-75
2021/10/21 06:25:53;;;;;;;26.30;4.30;;;14.60;1.00;;;;;;4880376;29;20120;-75
2021/10/21 06:28:22;;;;;;;21.67;3.85;;;14.60;1.00;;;;;;4881245;29;20123;-75
2021/10/21 06:30:48;;;;;;;24.80;4.30;;;14.50;1.00;;;;;;4881144;29;20056;-74
2021/10/21 06:33:15;;;;;;;27.02;4.80;;;14.50;1.00;;;;;;4881847;29;20124;-75
2021/10/21 06:35:42;;;;;;;25.10;4.72;;;14.60;1.00;;;;;;4881225;29;20596;-75
2021/10/21 06:38:08;;;;;;;23.48;4.47;;;14.60;1.00;;;;;;4880083;29;20048;-75
2021/10/21 06:40:34;;;;;;;23.50;4.18;;;14.50;1.00;;;;;;4881299;29;20067;-74
2021/10/21 06:43:00;;;;;;;22.58;4.00;;;14.50;1.00;;;;;;4881314;29;20500;-74
2021/10/21 06:45:26;;;;;;;17.83;4.30;;;14.60;1.00;;;;;;4880999;29;20079;-76
2021/10/21 06:47:52;;;;;;;24.90;3.92;;;14.60;1.00;;;;;;4880721;29;20068;-76
2021/10/21 06:50:18;;;;;;;24.02;4.40;;;14.60;1.00;;;;;;4880543;29;20056;-76
2021/10/21 06:52:45;;;;;;;23.88;4.13;;;14.50;1.00;;;;;;4880713;29;20132;-76
2021/10/21 06:55:15;;;;;;;25.35;4.15;;;14.60;1.00;;;;;;4880520;29;20052;-74
2021/10/21 06:58:07;;;;;;;25.92;5.28;;;14.60;1.00;;;;;;4879415;29;20064;-74
2021/10/21 07:00:40;;;;;;;26.65;5.22;;;14.60;1.00;;;;;;4870205;29;20097;-74
2021/10/21 07:03:07;;;;;;;19.70;4.03;;;14.70;1.00;;;;;;4859479;29;20050;-75
2021/10/21 07:05:38;;;;;;;22.25;4.85;;;14.60;1.00;;;;;;4862500;29;20096;-74
2021/10/21 07:08:06;;;;;;;22.20;4.95;;;14.70;1.00;;;;;;4862920;29;20076;-74
2021/10/21 07:10:32;;;;;;;28.65;4.63;;;14.70;1.00;;;;;;4862463;29;20078;-74
2021/10/21 07:13:02;;;;;;;24.52;4.82;;;14.70;1.00;;;;;;4862622;29;20105;-74
2021/10/21 07:15:28;;;;;;;29.77;5.10;;;14.70;1.00;;;;;;4862366;29;20037;-74
2021/10/21 07:17:53;;;;;;;21.40;4.30;;;14.70;1.00;;;;;;4861038;29;20165;-74
2021/10/21 07:20:19;;;;;;;20.20;5.13;;;14.60;1.00;;;;;;4862609;29;20040;-74
2021/10/21 07:22:45;;;;;;;24.60;4.88;;;14.60;1.00;;;;;;4872058;29;20052;-75
2021/10/21 07:25:11;;;;;;;27.75;4.88;;;14.70;1.00;;;;;;4879962;29;20048;-75
2021/10/21 07:27:37;;;;;;;18.77;4.30;;;14.70;1.00;;;;;;4880800;29;20045;-74
2021/10/21 07:30:04;;;;;;;20.77;4.35;;;14.70;1.00;;;;;;4879037;29;20049;-75
2021/10/21 07:32:30;;;;;;;29.02;4.40;;;14.70;1.00;;;;;;4879027;29;20061;-75
2021/10/21 07:34:56;;;;;;;26.30;4.53;;;14.70;1.00;;;;;;4880063;29;20576;-75
2021/10/21 07:37:22;;;;;;;24.65;4.80;;;14.70;1.00;;;;;;4880728;29;20040;-75
2021/10/21 07:39:48;;;;;;;28.65;4.32;;;14.70;1.00;;;;;;4880707;29;20044;-76
2021/10/21 07:42:14;;;;;;;28.38;4.68;;;14.70;1.00;;;;;;4880459;29;20055;-75
2021/10/21 07:44:42;;;;;;;21.73;4.60;;;14.70;1.00;;;;;;4880618;29;20033;-74
2021/10/21 07:47:08;;;;;;;29.52;4.20;;;14.70;1.00;;;;;;4880687;29;20076;-75
2021/10/21 07:49:34;;;;;;;27.10;4.22;;;14.80;1.00;;;;;;4880890;29;20048;-78
2021/10/21 07:52:02;;;;;;;27.70;4.57;;;14.80;1.00;;;;;;4879123;29;20056;-78
2021/10/21 07:54:29;;;;;;;19.75;4.03;;;14.80;1.00;;;;;;4879610;29;20053;-77
2021/10/21 07:56:57;;;;;;;26.63;4.88;;;14.90;1.00;;;;;;4876151;29;20125;-78
2021/10/21 07:59:24;;;;;;;22.35;5.60;;;14.90;1.00;;;;;;4880380;29;20045;-77
2021/10/21 08:01:50;;;;;;;21.40;4.30;;;15.00;1.00;;;;;;4883600;29;20041;-78
2021/10/21 08:04:17;;;;;;;25.38;4.10;;;15.10;1.00;;;;;;4884205;29;20191;-78
2021/10/21 08:06:44;;;;;;;22.33;4.00;;;15.00;1.00;;;;;;4882985;29;20465;-75
2021/10/21 08:09:10;;;;;;;22.23;4.47;;;15.00;1.00;;;;;;4874861;29;20056;-76
2021/10/21 08:11:40;;;;;;;16.13;3.40;;;15.00;1.00;;;;;;4880727;29;20051;-75
2021/10/21 08:14:07;;;;;;;17.63;3.70;;;15.10;1.00;;;;;;4882910;29;20037;-76
2021/10/21 08:16:33;;;;;;;17.95;3.65;;;15.00;1.00;;;;;;4882905;29;20033;-77
2021/10/21 08:18:59;;;;;;;21.33;4.05;;;15.10;1.00;;;;;;4882260;29;20041;-77
2021/10/21 08:21:25;;;;;;;12.50;3.10;;;15.20;1.00;;;;;;4883138;29;20123;-77
2021/10/21 08:23:54;;;;;;;16.45;4.00;;;15.20;1.00;;;;;;4883002;29;20049;-76
2021/10/21 08:26:25;;;;;;;18.50;3.85;;;15.40;1.00;;;;;;4883999;29;20037;-77
2021/10/21 08:28:51;;;;;;;12.77;3.55;;;15.40;1.00;;;;;;4884064;29;20048;-76
2021/10/21 08:31:17;;;;;;;22.65;4.57;;;15.30;1.00;;;;;;4882986;29;20040;-76
2021/10/21 08:33:44;;;;;;;22.30;4.45;;;15.30;1.00;;;;;;4862090;29;20125;-78
2021/10/21 08:36:14;;;;;;;21.42;3.85;;;15.40;1.00;;;;;;4862466;29;20037;-79
2021/10/21 08:38:41;;;;;;;15.52;3.08;;;15.70;1.00;;;;;;4863906;29;20053;-78
2021/10/21 08:41:08;;;;;;;21.92;3.28;;;15.80;1.00;;;;;;4864761;29;20557;-80
2021/10/21 08:43:35;;;;;;;24.27;4.20;;;15.90;1.00;;;;;;4865010;29;20521;-79
2021/10/21 08:46:05;;;;;;;21.08;3.55;;;16.00;1.00;;;;;;4863206;29;20057;-80
2021/10/21 08:48:33;;;;;;;20.02;4.15;;;16.00;1.00;;;;;;4864765;29;20084;-79
2021/10/21 08:51:01;;;;;;;21.83;4.22;;;15.90;1.00;;;;;;4863224;29;20141;-80
2021/10/21 08:53:28;;;;;;;19.90;3.90;;;16.00;1.00;;;;;;4863852;29;20156;-80
2021/10/21 08:55:54;;;;;;;21.83;4.03;;;16.10;1.00;;;;;;4864024;29;20577;-80
2021/10/21 08:58:24;;;;;;;20.50;4.10;;;16.20;1.00;;;;;;4863403;29;20061;-80
2021/10/21 09:00:58;;;;;;;19.97;3.90;;;16.20;1.00;;;;;;4864459;29;20045;-78
2021/10/21 09:09:06;;;;;;;;;;;16.10;1.00;;;;;;4864609;29;20053;-78
2021/10/21 09:11:32;;;;;;;24.67;4.45;;;16.00;1.00;;;;;;4862931;29;19912;-78
2021/10/21 09:14:12;;;;;;;26.15;4.07;;;15.90;1.00;;;;;;4864921;29;20519;-77
2021/10/21 09:16:41;;;;;;;23.35;4.30;;;15.90;1.00;;;;;;4864791;29;20041;-78
2021/10/21 09:19:12;;;;;;;23.67;4.45;;;15.70;1.00;;;;;;4864850;29;20085;-77
2021/10/21 09:21:40;;;;;;;21.00;4.43;;;15.60;1.00;;;;;;4864194;29;20068;-78
2021/10/21 09:24:25;;;;;;;24.90;4.55;;;15.80;1.00;;;;;;4863924;29;20049;-79
2021/10/21 09:27:01;;;;;;;21.58;3.90;;;15.90;1.00;;;;;;4861570;29;20033;-79
2021/10/21 09:29:27;;;;;;;19.98;4.60;;;16.10;1.00;;;;;;4863960;29;20497;-77
2021/10/21 09:32:06;;;;;;;23.65;4.07;;;16.20;1.00;;;;;;4864055;29;20068;-78
2021/10/21 09:34:51;;;;;;;26.63;5.35;;;16.30;1.00;;;;;;4864500;29;20076;-78
2021/10/21 09:37:24;;;;;;;27.48;4.75;;;16.50;1.00;;;;;;4864208;29;20078;-77
2021/10/21 09:39:51;;;;;;;23.55;4.45;;;16.60;1.00;;;;;;4863245;29;20405;-77
2021/10/21 09:42:28;;;;;;;26.80;5.20;;;16.60;1.00;;;;;;4864052;29;20052;-78
2021/10/21 09:45:21;;;;;;;25.75;4.25;;;16.80;1.00;;;;;;4864290;29;20045;-78
2021/10/21 09:47:50;;;;;;;20.23;3.70;;;16.70;1.00;;;;;;4863989;29;20041;-78
2021/10/21 09:50:23;;;;;;;28.92;4.10;;;16.70;1.00;;;;;;4863913;29;20045;-78
2021/10/21 09:53:20;;;;;;;22.60;4.72;;;16.80;1.00;;;;;;4863935;29;20498;-78
2021/10/21 09:56:08;;;;;;;19.70;4.45;;;16.80;1.00;;;;;;4864161;29;20038;-78
2021/10/21 09:58:41;;;;;;;21.17;4.03;;;16.70;1.00;;;;;;4863825;29;20053;-77
2021/10/21 10:01:14;;;;;;;18.77;4.63;;;16.70;1.00;;;;;;4863894;29;20053;-78
2021/10/21 10:03:42;;;;;;;20.60;4.65;;;16.70;1.00;;;;;;4864035;29;20040;-78
2021/10/21 10:06:08;;;;;;;22.48;4.40;;;16.70;1.00;;;;;;4863700;29;20128;-77
2021/10/21 10:08:36;;;;;;;21.50;4.45;;;16.70;1.00;;;;;;4866642;29;20041;-76
2021/10/21 10:11:19;;;;;;;20.88;5.65;;;16.80;1.00;;;;;;4867249;29;20057;-77
2021/10/21 10:13:47;;;;;;;19.85;4.93;;;16.80;1.00;;;;;;4864479;29;20081;-78
2021/10/21 10:16:15;;;;;;;23.77;4.72;;;16.80;1.00;;;;;;4863657;29;20120;-78
2021/10/21 10:18:46;;;;;;;24.70;5.45;;;16.70;1.00;;;;;;4867788;29;20097;-77
2021/10/21 10:21:23;;;;;;;21.40;4.57;;;16.70;1.00;;;;;;4862235;29;20042;-78
2021/10/21 10:24:03;;;;;;;19.88;3.70;;;16.80;1.00;;;;;;4865761;29;20064;-78
2021/10/21 10:26:53;;;;;;;24.45;5.32;;;16.70;1.00;;;;;;4862491;29;20099;-78
2021/10/21 10:29:36;;;;;;;20.90;4.30;;;16.80;1.00;;;;;;4863837;29;20070;-79
2021/10/21 10:32:04;;;;;;;15.90;3.90;;;16.90;1.00;;;;;;4863161;29;20038;-77
2021/10/21 10:34:33;;;;;;;21.15;4.07;;;17.00;1.00;;;;;;4862249;29;20049;-77
2021/10/21 10:37:15;;;;;;;19.27;4.22;;;17.20;1.00;;;;;;4863343;29;20418;-78
2021/10/21 10:39:45;;;;;;;18.30;4.28;;;17.40;1.00;;;;;;4862374;29;20132;-77
2021/10/21 10:42:11;;;;;;;25.92;4.95;;;17.50;1.00;;;;;;4861817;29;20558;-77
2021/10/21 10:44:37;;;;;;;23.35;3.85;;;17.60;1.00;;;;;;4862953;29;20053;-77
2021/10/21 10:47:05;;;;;;;21.05;4.03;;;17.60;1.00;;;;;;4862764;29;20501;-78
2021/10/21 10:49:39;;;;;;;21.67;3.60;;;17.60;1.00;;;;;;4862982;29;20097;-79
2021/10/21 10:52:11;;;;;;;23.67;4.63;;;17.70;1.00;;;;;;4861603;29;20113;-77
2021/10/21 10:55:01;;;;;;;20.50;4.13;;;18.00;1.00;;;;;;4859986;29;20049;-77
2021/10/21 10:57:27;;;;;;;22.45;3.80;;;18.10;1.00;;;;;;4862178;29;20072;-78
2021/10/21 10:59:54;;;;;;;20.75;3.88;;;18.10;1.00;;;;;;4862498;29;20041;-78
2021/10/21 11:02:24;;;;;;;14.20;3.20;;;18.20;1.00;;;;;;4861573;29;20190;-79
2021/10/21 11:07:19;;;;;;;16.17;3.60;;;18.30;1.00;;;;;;4862628;29;20044;-78
2021/10/21 11:09:45;;;;;;;13.20;3.22;;;18.20;1.00;;;;;;4861848;29;20052;-78
2021/10/21 11:12:21;;;;;;;19.83;3.78;;;18.10;1.00;;;;;;4862751;29;20072;-78
2021/10/21 11:14:54;;;;;;;23.27;4.00;;;18.20;1.00;;;;;;4863113;29;20045;-78
2021/10/21 11:17:46;;;;;;;14.07;2.90;;;17.90;1.00;;;;;;4862701;29;20104;-78
2021/10/21 11:20:38;;;;;;;18.75;3.72;;;17.90;1.00;;;;;;4861030;29;20170;-78
2021/10/21 11:23:28;;;;;;;20.27;4.47;;;18.00;1.00;;;;;;4862161;29;20170;-78
2021/10/21 11:25:56;;;;;;;19.75;3.83;;;17.80;1.00;;;;;;4862762;29;20041;-78
2021/10/21 11:28:27;;;;;;;17.90;3.58;;;17.90;1.00;;;;;;4862843;29;20148;-78
2021/10/21 11:30:53;;;;;;;14.90;3.67;;;18.00;1.00;;;;;;4862373;29;20077;-78
2021/10/21 11:33:19;;;;;;;13.43;3.42;;;18.20;1.00;;;;;;4863108;29;20042;-78
2021/10/21 11:35:45;;;;;;;11.55;3.15;;;18.30;1.00;;;;;;4862092;29;20037;-78
2021/10/21 11:38:13;;;;;;;16.90;3.38;;;18.10;1.00;;;;;;4862887;29;20048;-78
2021/10/21 11:40:42;;;;;;;12.90;2.92;;;18.00;1.00;;;;;;4862473;29;20041;-78
2021/10/21 11:43:22;;;;;;;18.10;3.22;;;18.00;1.00;;;;;;4862174;29;20053;-78
2021/10/21 11:45:52;;;;;;;15.90;3.65;;;18.20;1.00;;;;;;4862030;29;20635;-78
2021/10/21 11:48:20;;;;;;;17.73;3.47;;;18.40;1.00;;;;;;4862482;29;20044;-78
2021/10/21 11:50:50;;;;;;;18.90;3.00;;;18.30;1.00;;;;;;4862038;29;20056;-78
2021/10/21 11:53:19;;;;;;;16.65;3.38;;;18.30;1.00;;;;;;4862092;29;20039;-78
2021/10/21 11:55:48;;;;;;;17.65;3.80;;;18.30;1.00;;;;;;4862861;29;20052;-78
2021/10/21 11:58:23;;;;;;;17.00;3.13;;;18.30;1.00;;;;;;4861706;29;20057;-78
2021/10/21 12:00:52;;;;;;;15.70;3.03;;;18.10;1.00;;;;;;4845681;29;20045;-78
2021/10/21 12:03:18;;;;;;;17.10;3.47;;;17.50;1.00;;;;;;4862310;29;20124;-78
2021/10/21 12:05:45;;;;;;;19.77;3.42;;;17.40;1.00;;;;;;4861047;29;20041;-78
2021/10/21 12:08:13;;;;;;;21.67;3.40;;;17.20;1.00;;;;;;4845503;29;20113;-78
2021/10/21 12:10:41;;;;;;;19.90;3.88;;;17.20;1.00;;;;;;4861896;29;20077;-78
2021/10/21 12:13:08;;;;;;;20.30;4.03;;;17.40;1.00;;;;;;4861959;29;20069;-78
2021/10/21 12:15:41;;;;;;;11.63;3.22;;;17.40;1.00;;;;;;4861229;29;20109;-78
2021/10/21 12:18:10;;;;;;;20.85;4.00;;;17.40;1.00;;;;;;4862094;29;20053;-78
2021/10/21 12:20:52;;;;;;;19.80;3.92;;;17.40;1.00;;;;;;4862173;29;20121;-78
2021/10/21 12:23:23;;;;;;;22.52;4.20;;;17.20;1.00;;;;;;4862254;29;20052;-78
2021/10/21 12:25:51;;;;;;;16.40;4.35;;;16.90;1.00;;;;;;4861408;29;20359;-78
2021/10/21 12:28:18;;;;;;;20.25;3.50;;;16.90;1.00;;;;;;4862154;29;20049;-78
2021/10/21 12:30:44;;;;;;;17.13;3.83;;;16.90;1.00;;;;;;4861872;29;20053;-78
2021/10/21 12:33:18;;;;;;;25.40;4.10;;;17.10;1.00;;;;;;4862098;29;20041;-78
2021/10/21 12:36:04;;;;;;;15.57;2.95;;;17.20;1.00;;;;;;4862373;29;20046;-78
2021/10/21 12:38:43;;;;;;;16.50;3.42;;;17.10;1.00;;;;;;4862197;29;20112;-78
2021/10/21 12:41:09;;;;;;;22.17;3.42;;;17.00;1.00;;;;;;4862238;29;20183;-78
2021/10/21 12:43:35;;;;;;;15.55;3.47;;;17.00;1.00;;;;;;4861671;29;20048;-78
2021/10/21 12:46:02;;;;;;;19.60;3.97;;;17.30;1.00;;;;;;4861999;29;20170;-78
2021/10/21 12:48:32;;;;;;;18.20;3.92;;;17.50;1.00;;;;;;4864255;29;20053;-78
2021/10/21 12:51:15;;;;;;;17.23;3.92;;;17.50;1.00;;;;;;4863653;29;20049;-78
2021/10/21 12:53:54;;;;;;;17.20;3.40;;;17.70;1.00;;;;;;4864958;29;20042;-78
2021/10/21 12:56:25;;;;;;;18.52;3.83;;;17.70;1.00;;;;;;4865106;29;20072;-78
2021/10/21 12:59:04;;;;;;;10.95;2.70;;;17.80;1.00;;;;;;4864603;29;20397;-78
2021/10/21 13:01:53;;;;;;;17.83;3.30;;;17.90;1.00;;;;;;4864804;29;20124;-78